Terminal Aerodrome Forecast
Issued by NWS

Home | Current Version | Previous Version | Text Only | Print | Product List | Glossary On
Versions: 1 2 3 4 5 6 7 8 9 10 11 12 13 14
000
FTUS43 KICT 131700
TAFSLN
TAF
KSLN 131737Z 1318/1418 02013KT P6SM SCT025 BKN100
     FM140200 VRB03KT P6SM SKC
     FM140800 21006KT P6SM BKN200
     FM141400 33005KT P6SM BKN120=

USA.gov is the U.S. government's official web portal to all federal, state and local government web resources and services.